createdAt,value
2018-02-10T00:00:05.709Z,59.40
2018-02-10T00:01:05.687Z,60.10
2018-02-10T00:02:05.657Z,60.80
2018-02-10T00:03:05.645Z,61.70
2018-02-10T00:04:05.616Z,64.20
2018-02-10T00:05:05.588Z,66.60
2018-02-10T00:06:05.567Z,66.80
2018-02-10T00:07:05.541Z,63.20
2018-02-10T00:08:05.519Z,64.50
2018-02-10T00:09:05.494Z,59.80
2018-02-10T00:10:05.473Z,59.70
2018-02-10T00:11:05.448Z,60.30
2018-02-10T00:12:05.426Z,59.50
2018-02-10T00:13:05.411Z,60.50
2018-02-10T00:14:05.383Z,59.40
2018-02-10T00:15:05.355Z,62.10
2018-02-10T00:16:05.348Z,59.40
2018-02-10T00:17:05.318Z,61.20
2018-02-10T00:18:05.288Z,58.70
2018-02-10T00:19:05.262Z,60.90
2018-02-10T00:20:05.247Z,57.70
2018-02-10T00:21:05.218Z,56.80
2018-02-10T00:22:05.192Z,55.40
2018-02-10T00:23:05.167Z,59.40
2018-02-10T00:24:05.149Z,61.50
2018-02-10T00:25:05.118Z,55.60
2018-02-10T00:26:05.100Z,56.90
2018-02-10T00:27:05.074Z,56.10
2018-02-10T00:28:05.049Z,55.60
2018-02-10T00:29:05.030Z,59.40
2018-02-10T00:30:05.009Z,55.40
2018-02-10T00:31:04.992Z,56.00
2018-02-10T00:32:04.958Z,60.40
2018-02-10T00:33:04.942Z,56.00
2018-02-10T00:34:04.919Z,57.60
2018-02-10T00:35:04.890Z,52.80
2018-02-10T00:36:04.864Z,52.40
2018-02-10T00:37:04.851Z,54.00
2018-02-10T00:38:04.818Z,55.90
2018-02-10T00:39:04.804Z,57.60
2018-02-10T00:40:04.771Z,52.40
2018-02-10T00:41:04.752Z,54.80
2018-02-10T00:42:04.724Z,54.70
2018-02-10T00:43:04.711Z,55.40
2018-02-10T00:44:04.679Z,59.40
2018-02-10T00:45:04.653Z,54.40
2018-02-10T00:46:04.627Z,54.60
2018-02-10T00:47:04.604Z,57.40
2018-02-10T00:48:04.589Z,53.10
2018-02-10T00:49:04.560Z,56.80
2018-02-10T00:50:04.537Z,57.40
2018-02-10T00:51:04.514Z,52.30
2018-02-10T00:52:04.489Z,55.60
2018-02-10T00:53:04.462Z,50.80
2018-02-10T00:54:04.441Z,57.90
2018-02-10T00:55:04.415Z,54.10
2018-02-10T00:56:04.398Z,54.20
2018-02-10T00:57:04.368Z,54.40
2018-02-10T00:58:04.348Z,49.90
2018-02-10T00:59:04.330Z,55.70
2018-02-10T01:00:04.301Z,56.40
2018-02-10T01:01:04.282Z,54.60
2018-02-10T01:02:04.254Z,56.10
2018-02-10T01:03:04.231Z,53.00
2018-02-10T01:04:04.216Z,54.60
2018-02-10T01:05:04.184Z,54.30
2018-02-10T01:06:04.160Z,56.60
2018-02-10T01:07:04.149Z,51.40
2018-02-10T01:08:04.116Z,49.90
2018-02-10T01:09:04.090Z,52.60
2018-02-10T01:10:04.071Z,54.70
2018-02-10T01:11:04.043Z,53.20
2018-02-10T01:12:04.029Z,53.40
2018-02-10T01:13:04.000Z,49.90
2018-02-10T01:14:03.979Z,50.80
2018-02-10T01:15:03.949Z,49.90
2018-02-10T01:16:03.929Z,51.50
2018-02-10T01:17:03.913Z,51.10
2018-02-10T01:18:03.879Z,52.80
2018-02-10T01:19:03.872Z,48.30
2018-02-10T01:20:03.845Z,49.70
2018-02-10T01:21:03.808Z,51.10
2018-02-10T01:22:03.789Z,51.20
2018-02-10T01:23:03.772Z,49.10
2018-02-10T01:24:03.740Z,54.80
2018-02-10T01:25:03.716Z,51.10
2018-02-10T01:26:03.690Z,51.90
2018-02-10T01:27:03.668Z,49.00
2018-02-10T01:28:03.645Z,49.30
2018-02-10T01:29:03.619Z,48.80
2018-02-10T01:30:03.601Z,47.10
2018-02-10T01:31:03.580Z,49.70
2018-02-10T01:32:03.549Z,51.40
2018-02-10T01:33:03.524Z,50.00
2018-02-10T01:34:03.500Z,51.10
2018-02-10T01:35:03.479Z,52.60
2018-02-10T01:36:03.517Z,48.50
2018-02-10T01:37:03.432Z,48.90
2018-02-10T01:38:03.409Z,51.70
2018-02-10T01:39:03.378Z,54.20
2018-02-10T01:40:03.424Z,49.50
2018-02-10T01:41:03.339Z,48.10
2018-02-10T01:42:03.351Z,50.40
2018-02-10T01:43:03.286Z,48.70
2018-02-10T01:44:03.362Z,48.00
2018-02-10T01:45:03.241Z,49.00
2018-02-10T01:46:03.217Z,47.60
2018-02-10T01:47:03.198Z,46.60
2018-02-10T01:48:03.275Z,46.40
2018-02-10T01:49:03.143Z,49.70
2018-02-10T01:50:03.202Z,45.20
2018-02-10T01:51:03.095Z,48.50
2018-02-10T01:52:03.090Z,50.20
2018-02-10T01:53:03.050Z,48.20
2018-02-10T01:54:03.024Z,48.40
2018-02-10T01:55:02.998Z,47.60
2018-02-10T01:56:02.979Z,44.30
2018-02-10T01:57:02.950Z,49.70
2018-02-10T01:58:02.935Z,44.20
2018-02-10T01:59:02.906Z,47.60
2018-02-10T02:00:02.900Z,44.10
2018-02-10T02:01:02.857Z,46.80
2018-02-10T02:02:02.836Z,43.30
2018-02-10T02:03:02.811Z,44.40
2018-02-10T02:04:02.790Z,46.10
2018-02-10T02:05:02.758Z,45.90
2018-02-10T02:06:02.748Z,47.20
2018-02-10T02:07:02.719Z,47.40
2018-02-10T02:08:02.688Z,49.40
2018-02-10T02:09:02.669Z,46.00
2018-02-10T02:10:02.640Z,44.20
2018-02-10T02:11:02.618Z,46.90
2018-02-10T02:12:02.598Z,43.60
2018-02-10T02:13:02.570Z,44.00
2018-02-10T02:14:02.545Z,41.80
2018-02-10T02:15:02.529Z,44.30
2018-02-10T02:16:02.510Z,43.60
2018-02-10T02:17:02.480Z,49.50
2018-02-10T02:18:02.458Z,39.50
2018-02-10T02:19:02.431Z,43.00
2018-02-10T02:20:02.403Z,43.30
2018-02-10T02:21:02.381Z,43.30
2018-02-10T02:22:02.358Z,43.60
2018-02-10T02:23:02.333Z,46.80
2018-02-10T02:24:02.310Z,42.40
2018-02-10T02:25:02.287Z,42.10
2018-02-10T02:26:02.266Z,40.60
2018-02-10T02:27:02.239Z,43.50
2018-02-10T02:28:02.221Z,41.10
2018-02-10T02:29:02.197Z,37.90
2018-02-10T02:30:02.171Z,44.10
2018-02-10T02:31:02.144Z,42.00
2018-02-10T02:32:02.120Z,45.00
2018-02-10T02:33:02.102Z,40.00
2018-02-10T02:34:02.074Z,39.90
2018-02-10T02:35:02.051Z,43.70
2018-02-10T02:36:02.028Z,44.00
2018-02-10T02:37:02.009Z,43.10
2018-02-10T02:38:01.979Z,44.70
2018-02-10T02:39:01.959Z,40.10
2018-02-10T02:40:01.937Z,42.60
2018-02-10T02:41:01.935Z,44.80
2018-02-10T02:42:01.882Z,42.50
2018-02-10T02:43:01.862Z,37.90
2018-02-10T02:44:01.840Z,42.70
2018-02-10T02:45:01.812Z,40.20
2018-02-10T02:46:01.792Z,42.00
2018-02-10T02:47:01.770Z,41.20
2018-02-10T02:48:01.768Z,39.70
2018-02-10T02:49:01.719Z,39.60
2018-02-10T02:50:01.703Z,39.20
2018-02-10T02:51:01.670Z,37.00
2018-02-10T02:52:01.650Z,40.80
2018-02-10T02:53:01.622Z,39.80
2018-02-10T02:54:01.601Z,38.50
2018-02-10T02:55:01.582Z,43.60
2018-02-10T02:56:01.559Z,41.60
2018-02-10T02:57:01.527Z,39.10
2018-02-10T02:58:01.505Z,39.50
2018-02-10T02:59:01.488Z,37.80
2018-02-10T03:00:01.459Z,38.30
2018-02-10T03:01:01.440Z,38.70
2018-02-10T03:02:01.409Z,38.30
2018-02-10T03:03:01.441Z,44.00
2018-02-10T03:04:01.369Z,38.80
2018-02-10T03:05:01.339Z,38.00
2018-02-10T03:06:01.318Z,38.80
2018-02-10T03:07:01.296Z,38.60
2018-02-10T03:08:01.269Z,37.70
2018-02-10T03:09:01.251Z,38.30
2018-02-10T03:10:01.220Z,38.40
2018-02-10T03:11:01.201Z,40.50
2018-02-10T03:12:01.180Z,37.50
2018-02-10T03:13:01.149Z,39.50
2018-02-10T03:14:01.140Z,41.20
2018-02-10T03:15:01.108Z,41.30
2018-02-10T03:16:01.097Z,39.00
2018-02-10T03:17:01.060Z,36.90
2018-02-10T03:18:01.035Z,41.90
2018-02-10T03:19:01.010Z,35.90
2018-02-10T03:20:00.988Z,39.10
2018-02-10T03:21:00.971Z,38.90
2018-02-10T03:22:00.941Z,38.00
2018-02-10T03:23:00.919Z,44.20
2018-02-10T03:24:00.893Z,41.40
2018-02-10T03:25:00.870Z,39.60
2018-02-10T03:26:00.843Z,38.20
2018-02-10T03:27:00.824Z,46.00
2018-02-10T03:28:00.799Z,37.60
2018-02-10T03:29:00.780Z,41.80
2018-02-10T03:30:00.748Z,41.20
2018-02-10T03:31:00.729Z,38.60
2018-02-10T03:32:00.709Z,39.80
2018-02-10T03:33:00.679Z,40.00
2018-02-10T03:34:00.656Z,36.90
2018-02-10T03:35:00.637Z,40.10
2018-02-10T03:36:00.609Z,40.90
2018-02-10T03:37:00.590Z,37.70
2018-02-10T03:38:00.564Z,40.20
2018-02-10T03:39:00.538Z,42.80
2018-02-10T03:40:00.518Z,44.90
2018-02-10T03:41:00.489Z,43.60
2018-02-10T03:42:00.466Z,38.80
2018-02-10T03:43:00.450Z,41.50
2018-02-10T03:44:00.419Z,41.60
2018-02-10T03:45:00.410Z,46.40
2018-02-10T03:46:00.371Z,42.00
2018-02-10T03:47:00.349Z,39.40
2018-02-10T03:48:00.324Z,40.30
2018-02-10T03:49:00.298Z,43.90
2018-02-10T03:50:00.277Z,44.10
2018-02-10T03:51:00.257Z,42.40
2018-02-10T03:52:00.229Z,43.10
2018-02-10T03:53:00.210Z,42.60
2018-02-10T03:54:00.182Z,41.60
2018-02-10T03:55:00.159Z,42.90
2018-02-10T03:56:00.149Z,40.00
2018-02-10T03:57:00.121Z,40.00
2018-02-10T03:58:00.091Z,41.40
2018-02-10T03:59:00.066Z,40.30
2018-02-10T04:00:00.052Z,41.40
2018-02-10T04:01:00.028Z,43.20
2018-02-10T04:01:59.993Z,42.60
2018-02-10T04:02:59.971Z,38.20
2018-02-10T04:03:59.950Z,41.40
2018-02-10T04:04:59.929Z,40.10
2018-02-10T04:05:59.906Z,41.60
2018-02-10T04:06:59.878Z,42.80
2018-02-10T04:07:59.852Z,41.00
2018-02-10T04:08:59.830Z,42.80
2018-02-10T04:09:59.804Z,44.30
2018-02-10T04:10:59.790Z,44.90
2018-02-10T04:11:59.759Z,44.30
2018-02-10T04:12:59.733Z,38.80
2018-02-10T04:13:59.719Z,46.00
2018-02-10T04:14:59.689Z,45.50
2018-02-10T04:15:59.668Z,41.70
2018-02-10T04:16:59.639Z,42.90
2018-02-10T04:17:59.619Z,44.90
2018-02-10T04:18:59.599Z,44.10
2018-02-10T04:19:59.568Z,47.30
2018-02-10T04:20:59.549Z,42.70
2018-02-10T04:21:59.532Z,43.60
2018-02-10T04:22:59.500Z,43.00
2018-02-10T04:23:59.479Z,39.00
2018-02-10T04:24:59.454Z,43.90
2018-02-10T04:25:59.432Z,44.60
2018-02-10T04:26:59.410Z,40.20
2018-02-10T04:27:59.390Z,40.50
2018-02-10T04:28:59.416Z,43.50
2018-02-10T04:29:59.340Z,43.80
2018-02-10T04:30:59.320Z,43.50
2018-02-10T04:31:59.292Z,45.10
2018-02-10T04:32:59.269Z,43.70
2018-02-10T04:33:59.249Z,43.00
2018-02-10T04:34:59.224Z,46.40
2018-02-10T04:35:59.201Z,43.90
2018-02-10T04:36:59.176Z,44.10
2018-02-10T04:37:59.158Z,46.30
2018-02-10T04:38:59.128Z,40.90
2018-02-10T04:39:59.109Z,45.80
2018-02-10T04:40:59.087Z,39.30
2018-02-10T04:41:59.064Z,51.20
2018-02-10T04:42:59.039Z,47.90
2018-02-10T04:43:59.013Z,47.40
2018-02-10T04:44:58.990Z,45.60
2018-02-10T04:45:58.970Z,43.60
2018-02-10T04:46:58.951Z,49.20
2018-02-10T04:47:58.922Z,48.10
2018-02-10T04:48:58.900Z,50.10
2018-02-10T04:49:58.877Z,51.60
2018-02-10T04:50:58.862Z,51.90
2018-02-10T04:51:58.839Z,51.10
2018-02-10T04:52:58.807Z,49.60
2018-02-10T04:53:58.795Z,55.00
2018-02-10T04:54:58.760Z,54.90
2018-02-10T04:55:58.749Z,57.70
2018-02-10T04:56:58.717Z,55.10
2018-02-10T04:57:58.690Z,55.50
2018-02-10T04:58:58.669Z,61.30
2018-02-10T04:59:58.648Z,64.50
2018-02-10T05:00:58.621Z,60.00
2018-02-10T05:01:58.598Z,60.40
2018-02-10T05:02:58.580Z,61.30
2018-02-10T05:03:58.562Z,59.50
2018-02-10T05:04:58.530Z,63.70
2018-02-10T05:05:58.513Z,59.20
2018-02-10T05:06:58.486Z,63.00
2018-02-10T05:07:58.459Z,60.30
2018-02-10T05:08:58.437Z,62.60
2018-02-10T05:09:58.415Z,59.10
2018-02-10T05:10:58.390Z,63.60
2018-02-10T05:11:58.424Z,60.70
2018-02-10T05:12:58.350Z,64.10
2018-02-10T05:13:58.322Z,63.70
2018-02-10T05:14:58.299Z,64.40
2018-02-10T05:15:58.325Z,61.30
2018-02-10T05:16:58.252Z,64.20
2018-02-10T05:17:58.285Z,63.60
2018-02-10T05:18:58.203Z,67.20
2018-02-10T05:19:58.237Z,61.70
2018-02-10T05:20:58.159Z,64.10
2018-02-10T05:21:58.201Z,63.80
2018-02-10T05:22:58.120Z,64.70
2018-02-10T05:23:58.102Z,64.60
2018-02-10T05:24:58.068Z,71.40
2018-02-10T05:25:58.194Z,70.70
2018-02-10T05:26:58.019Z,65.30
2018-02-10T05:27:58.149Z,71.90
2018-02-10T05:28:57.972Z,71.10
2018-02-10T05:29:58.049Z,74.00
2018-02-10T05:30:57.930Z,73.50
2018-02-10T05:31:58.010Z,73.70
2018-02-10T05:32:57.879Z,76.70
2018-02-10T05:33:57.863Z,76.60
2018-02-10T05:34:57.837Z,78.90
2018-02-10T05:35:57.814Z,74.10
2018-02-10T05:36:57.793Z,74.10
2018-02-10T05:37:57.769Z,76.60
2018-02-10T05:38:57.740Z,78.00
2018-02-10T05:39:57.722Z,73.70
2018-02-10T05:40:57.697Z,77.30
2018-02-10T05:41:57.674Z,79.20
2018-02-10T05:42:57.652Z,81.70
2018-02-10T05:43:57.624Z,73.30
2018-02-10T05:44:57.603Z,75.10
2018-02-10T05:45:57.581Z,75.70
2018-02-10T05:46:57.555Z,77.20
2018-02-10T05:47:57.538Z,83.60
2018-02-10T05:48:57.507Z,78.40
2018-02-10T05:49:57.498Z,81.60
2018-02-10T05:50:57.462Z,80.30
2018-02-10T05:51:57.444Z,85.10
2018-02-10T05:52:57.422Z,89.60
2018-02-10T05:53:57.393Z,90.00
2018-02-10T05:54:57.372Z,91.30
2018-02-10T05:55:57.351Z,87.30
2018-02-10T05:56:57.317Z,74.60
2018-02-10T05:57:57.296Z,79.10
2018-02-10T05:58:57.269Z,90.10
2018-02-10T05:59:57.251Z,83.50
2018-02-10T06:00:57.227Z,78.00
2018-02-10T06:01:57.199Z,77.80
2018-02-10T06:02:57.176Z,70.50
2018-02-10T06:03:57.162Z,75.20
2018-02-10T06:04:57.130Z,78.50
2018-02-10T06:05:57.108Z,84.00
2018-02-10T06:06:57.088Z,76.50
2018-02-10T06:07:57.091Z,76.70
2018-02-10T06:08:57.041Z,82.80
2018-02-10T06:09:57.013Z,83.80
2018-02-10T06:10:56.992Z,84.40
2018-02-10T06:11:56.972Z,83.70
2018-02-10T06:12:56.942Z,75.40
2018-02-10T06:13:56.922Z,79.00
2018-02-10T06:14:56.900Z,90.90
2018-02-10T06:15:56.878Z,89.10
2018-02-10T06:16:56.850Z,87.90
2018-02-10T06:17:56.885Z,87.90
2018-02-10T06:18:56.803Z,87.70
2018-02-10T06:19:56.781Z,83.80
2018-02-10T06:20:56.757Z,83.70
2018-02-10T06:21:56.734Z,84.80
2018-02-10T06:22:56.710Z,88.10
2018-02-10T06:23:56.694Z,79.00
2018-02-10T06:24:56.665Z,92.70
2018-02-10T06:25:56.639Z,89.00
2018-02-10T06:26:56.619Z,89.20
2018-02-10T06:27:56.596Z,89.50
2018-02-10T06:28:56.571Z,93.30
2018-02-10T06:29:56.558Z,84.80
2018-02-10T06:30:56.523Z,93.10
2018-02-10T06:31:56.499Z,88.70
2018-02-10T06:32:56.481Z,89.10
2018-02-10T06:33:56.482Z,92.30
2018-02-10T06:34:56.439Z,99.30
2018-02-10T06:35:56.404Z,95.80
2018-02-10T06:36:56.382Z,93.80
2018-02-10T06:37:56.363Z,92.90
2018-02-10T06:38:56.344Z,96.70
2018-02-10T06:39:56.310Z,97.60
2018-02-10T06:40:56.291Z,97.60
2018-02-10T06:41:56.269Z,94.50
2018-02-10T06:42:56.244Z,101.80
2018-02-10T06:43:56.221Z,99.90
2018-02-10T06:44:56.193Z,100.60
2018-02-10T06:45:56.170Z,99.40
2018-02-10T06:46:56.144Z,100.60
2018-02-10T06:47:56.122Z,102.00
2018-02-10T06:48:56.152Z,101.30
2018-02-10T06:49:56.075Z,95.50
2018-02-10T06:50:56.060Z,94.50
2018-02-10T06:51:56.031Z,97.00
2018-02-10T06:52:56.005Z,102.60
2018-02-10T06:53:55.981Z,101.50
2018-02-10T06:54:55.960Z,94.20
2018-02-10T06:55:55.934Z,98.00
2018-02-10T06:56:55.910Z,95.00
2018-02-10T06:57:55.892Z,93.80
2018-02-10T06:58:55.867Z,104.30
2018-02-10T06:59:55.841Z,102.50
2018-02-10T07:00:55.817Z,105.90
2018-02-10T07:01:55.799Z,97.00
2018-02-10T07:02:55.783Z,93.30
2018-02-10T07:03:55.752Z,103.60
2018-02-10T07:04:55.723Z,91.70
2018-02-10T07:05:55.699Z,91.70
2018-02-10T07:06:55.680Z,90.00
2018-02-10T07:07:55.667Z,88.20
2018-02-10T07:08:55.629Z,97.70
2018-02-10T07:09:55.605Z,91.90
2018-02-10T07:10:55.590Z,84.20
2018-02-10T07:11:55.565Z,98.40
2018-02-10T07:12:55.542Z,96.10
2018-02-10T07:13:55.519Z,88.70
2018-02-10T07:14:55.493Z,97.30
2018-02-10T07:15:55.477Z,104.70
2018-02-10T07:16:55.448Z,99.90
2018-02-10T07:17:55.424Z,90.60
2018-02-10T07:18:55.407Z,93.30
2018-02-10T07:19:55.378Z,93.90
2018-02-10T07:20:55.362Z,96.00
2018-02-10T07:21:55.340Z,96.50
2018-02-10T07:22:55.309Z,94.00
2018-02-10T07:23:55.289Z,92.80
2018-02-10T07:24:55.261Z,95.10
2018-02-10T07:25:55.252Z,101.40
2018-02-10T07:26:55.218Z,95.20
2018-02-10T07:27:55.193Z,92.50
2018-02-10T07:28:55.173Z,94.40
2018-02-10T07:29:55.151Z,90.50
2018-02-10T07:30:55.124Z,95.50
2018-02-10T07:31:55.101Z,97.10
2018-02-10T07:32:55.080Z,96.50
2018-02-10T07:33:55.082Z,99.80
2018-02-10T07:34:55.033Z,95.10
2018-02-10T07:35:55.012Z,95.70
2018-02-10T07:36:54.990Z,94.80
2018-02-10T07:37:54.963Z,100.50
2018-02-10T07:38:54.940Z,100.50
2018-02-10T07:39:54.919Z,95.90
2018-02-10T07:40:54.903Z,96.00
2018-02-10T07:41:54.870Z,101.20
2018-02-10T07:42:54.849Z,94.40
2018-02-10T07:43:54.829Z,96.10
2018-02-10T07:44:54.814Z,89.30
2018-02-10T07:45:54.777Z,101.30
2018-02-10T07:46:54.759Z,95.90
2018-02-10T07:47:54.739Z,99.30
2018-02-10T07:48:54.711Z,98.70
2018-02-10T07:49:54.688Z,93.70
2018-02-10T07:50:54.671Z,100.30
2018-02-10T07:51:54.642Z,93.30
2018-02-10T07:52:54.624Z,92.60
2018-02-10T07:53:54.602Z,92.80
2018-02-10T07:54:54.578Z,96.80
2018-02-10T07:55:54.551Z,93.90
2018-02-10T07:56:54.530Z,97.80
2018-02-10T07:57:54.508Z,97.90
2018-02-10T07:58:54.483Z,98.00
2018-02-10T07:59:54.506Z,100.00
2018-02-10T08:00:54.439Z,100.50
2018-02-10T08:01:54.409Z,101.20
2018-02-10T08:02:54.390Z,102.30
2018-02-10T08:03:54.372Z,104.10
2018-02-10T08:04:54.346Z,98.10
2018-02-10T08:05:54.346Z,102.10
2018-02-10T08:06:54.294Z,97.90
2018-02-10T08:07:54.281Z,102.10
2018-02-10T08:08:54.361Z,103.80
2018-02-10T08:09:54.226Z,100.20
2018-02-10T08:10:54.209Z,105.10
2018-02-10T08:11:54.180Z,97.50
2018-02-10T08:12:54.164Z,101.00
2018-02-10T08:13:54.145Z,92.60
2018-02-10T08:14:54.118Z,95.50
2018-02-10T08:15:54.090Z,104.20
2018-02-10T08:16:54.068Z,104.70
2018-02-10T08:17:54.049Z,101.90
2018-02-10T08:18:54.019Z,102.60
2018-02-10T08:19:53.997Z,99.50
2018-02-10T08:20:53.975Z,97.70
2018-02-10T08:21:53.950Z,102.10
2018-02-10T08:22:53.930Z,96.20
2018-02-10T08:23:53.908Z,91.40
2018-02-10T08:24:53.886Z,90.80
2018-02-10T08:25:53.868Z,102.00
2018-02-10T08:26:53.842Z,97.10
2018-02-10T08:27:53.817Z,93.30
2018-02-10T08:28:53.799Z,98.60
2018-02-10T08:29:53.769Z,99.60
2018-02-10T08:30:53.754Z,100.20
2018-02-10T08:31:53.726Z,98.20
2018-02-10T08:32:53.698Z,97.00
2018-02-10T08:33:53.679Z,95.10
2018-02-10T08:34:53.664Z,98.20
2018-02-10T08:35:53.633Z,97.70
2018-02-10T08:36:53.611Z,98.90
2018-02-10T08:37:53.588Z,94.60
2018-02-10T08:38:53.561Z,97.30
2018-02-10T08:39:53.555Z,100.50
2018-02-10T08:40:53.519Z,103.00
2018-02-10T08:41:53.499Z,106.10
2018-02-10T08:42:53.483Z,96.90
2018-02-10T08:43:53.451Z,105.30
2018-02-10T08:44:53.428Z,103.30
2018-02-10T08:45:53.405Z,96.20
2018-02-10T08:46:53.388Z,96.00
2018-02-10T08:47:53.362Z,99.50
2018-02-10T08:48:53.339Z,96.20
2018-02-10T08:49:53.317Z,101.60
2018-02-10T08:50:53.289Z,98.10
2018-02-10T08:51:53.272Z,90.10
2018-02-10T08:52:53.243Z,94.70
2018-02-10T08:53:53.226Z,91.30
2018-02-10T08:54:53.198Z,98.00
2018-02-10T08:55:53.178Z,96.20
2018-02-10T08:56:53.162Z,88.20
2018-02-10T08:57:53.132Z,96.10
2018-02-10T08:58:53.121Z,96.70
2018-02-10T08:59:53.087Z,90.10
2018-02-10T09:00:53.069Z,98.70
2018-02-10T09:01:53.040Z,91.20
2018-02-10T09:02:53.016Z,88.60
2018-02-10T09:03:53.004Z,96.40
2018-02-10T09:04:52.978Z,90.30
2018-02-10T09:05:53.000Z,87.00
2018-02-10T09:06:52.928Z,96.50
2018-02-10T09:07:52.910Z,95.70
2018-02-10T09:08:52.883Z,87.20
2018-02-10T09:09:52.905Z,90.40
2018-02-10T09:10:52.840Z,88.20
2018-02-10T09:11:52.867Z,84.40
2018-02-10T09:12:52.800Z,87.00
2018-02-10T09:13:52.770Z,78.80
2018-02-10T09:14:52.755Z,85.30
2018-02-10T09:15:52.728Z,88.80
2018-02-10T09:16:52.699Z,81.40
2018-02-10T09:17:52.780Z,83.40
2018-02-10T09:18:52.656Z,86.80
2018-02-10T09:19:52.688Z,85.10
2018-02-10T09:20:52.608Z,83.70
2018-02-10T09:21:52.588Z,62.30
2018-02-10T09:22:52.569Z,84.60
2018-02-10T09:23:52.555Z,84.90
2018-02-10T09:24:52.528Z,86.40
2018-02-10T09:25:52.500Z,81.10
2018-02-10T09:26:52.472Z,83.20
2018-02-10T09:27:52.449Z,79.90
2018-02-10T09:28:52.425Z,76.10
2018-02-10T09:29:52.402Z,79.20
2018-02-10T09:30:52.384Z,80.80
2018-02-10T09:31:52.370Z,80.60
2018-02-10T09:32:52.338Z,78.00
2018-02-10T09:33:52.316Z,79.50
2018-02-10T09:34:52.292Z,79.20
2018-02-10T09:35:52.268Z,78.00
2018-02-10T09:36:52.247Z,75.50
2018-02-10T09:37:52.231Z,76.60
2018-02-10T09:38:52.203Z,78.00
2018-02-10T09:39:52.226Z,72.80
2018-02-10T09:40:52.158Z,74.50
2018-02-10T09:41:52.130Z,73.20
2018-02-10T09:42:52.109Z,74.50
2018-02-10T09:43:52.085Z,72.10
2018-02-10T09:44:52.068Z,73.00
2018-02-10T09:45:52.046Z,69.60
2018-02-10T09:46:52.019Z,75.00
2018-02-10T09:47:51.997Z,67.90
2018-02-10T09:48:51.977Z,68.40
2018-02-10T09:49:51.951Z,73.40
2018-02-10T09:50:51.927Z,73.60
2018-02-10T09:51:51.907Z,72.50
2018-02-10T09:52:51.888Z,69.80
2018-02-10T09:53:51.862Z,73.50
2018-02-10T09:54:51.840Z,72.30
2018-02-10T09:55:51.817Z,75.10
2018-02-10T09:56:51.802Z,71.20
2018-02-10T09:57:51.769Z,66.70
2018-02-10T09:58:51.747Z,72.70
2018-02-10T09:59:51.729Z,72.80
2018-02-10T10:00:51.706Z,70.80
2018-02-10T10:01:51.681Z,66.20
2018-02-10T10:02:51.663Z,67.30
2018-02-10T10:03:51.644Z,67.50
2018-02-10T10:04:51.617Z,72.50
2018-02-10T10:05:51.590Z,68.00
2018-02-10T10:06:51.572Z,71.30
2018-02-10T10:07:51.556Z,66.90
2018-02-10T10:08:51.533Z,64.30
2018-02-10T10:09:51.501Z,66.90
2018-02-10T10:10:51.478Z,69.40
2018-02-10T10:11:51.456Z,66.40
2018-02-10T10:12:51.434Z,73.20
2018-02-10T10:13:51.415Z,74.40
2018-02-10T10:14:51.391Z,66.00
2018-02-10T10:15:51.369Z,66.50
2018-02-10T10:16:51.342Z,66.30
2018-02-10T10:17:51.320Z,67.40
2018-02-10T10:18:51.307Z,65.50
2018-02-10T10:19:51.283Z,73.50
2018-02-10T10:20:51.250Z,71.90
2018-02-10T10:21:51.230Z,66.10
2018-02-10T10:22:51.209Z,76.00
2018-02-10T10:23:51.182Z,78.50
2018-02-10T10:24:51.160Z,73.20
2018-02-10T10:25:51.140Z,74.40
2018-02-10T10:26:51.120Z,74.60
2018-02-10T10:27:51.101Z,69.90
2018-02-10T10:28:51.072Z,70.10
2018-02-10T10:29:51.051Z,73.80
2018-02-10T10:30:51.028Z,72.70
2018-02-10T10:31:51.000Z,73.70
2018-02-10T10:32:50.980Z,70.90
2018-02-10T10:33:50.962Z,73.90
2018-02-10T10:34:50.939Z,69.90
2018-02-10T10:35:50.909Z,80.90
2018-02-10T10:36:50.884Z,74.00
2018-02-10T10:37:50.870Z,77.00
2018-02-10T10:38:50.849Z,70.60
2018-02-10T10:39:50.834Z,67.20
2018-02-10T10:40:50.806Z,70.00
2018-02-10T10:41:50.784Z,63.20
2018-02-10T10:42:50.750Z,65.50
2018-02-10T10:43:50.732Z,63.90
2018-02-10T10:44:50.710Z,72.70
2018-02-10T10:45:50.689Z,70.00
2018-02-10T10:46:50.667Z,68.20
2018-02-10T10:47:50.654Z,69.50
2018-02-10T10:48:50.628Z,71.10
2018-02-10T10:49:50.597Z,69.30
2018-02-10T10:50:50.576Z,72.40
2018-02-10T10:51:50.550Z,67.50
2018-02-10T10:52:50.528Z,67.60
2018-02-10T10:53:50.547Z,68.00
2018-02-10T10:54:50.483Z,66.50
2018-02-10T10:55:50.461Z,73.90
2018-02-10T10:56:50.443Z,75.10
2018-02-10T10:57:50.417Z,59.90
2018-02-10T10:58:50.392Z,70.60
2018-02-10T10:59:50.374Z,70.00
2018-02-10T11:00:50.343Z,73.80
2018-02-10T11:01:50.329Z,74.80
2018-02-10T11:02:50.301Z,75.90
2018-02-10T11:03:50.285Z,74.10
2018-02-10T11:04:50.252Z,77.70
2018-02-10T11:05:50.236Z,73.80
2018-02-10T11:06:50.208Z,82.50
2018-02-10T11:07:50.192Z,78.80
2018-02-10T11:08:50.164Z,73.80
2018-02-10T11:09:50.143Z,74.80
2018-02-10T11:10:50.316Z,78.60
2018-02-10T11:11:50.096Z,75.00
2018-02-10T11:12:50.070Z,73.00
2018-02-10T11:13:50.044Z,74.10
2018-02-10T11:14:50.074Z,80.20
2018-02-10T11:15:50.002Z,74.60
2018-02-10T11:16:50.036Z,76.40
2018-02-10T11:17:49.963Z,79.20
2018-02-10T11:18:49.935Z,84.10
2018-02-10T11:19:49.922Z,80.50
2018-02-10T11:20:49.890Z,80.10
2018-02-10T11:21:49.871Z,74.10
2018-02-10T11:22:49.850Z,75.00
2018-02-10T11:23:49.821Z,84.40
2018-02-10T11:24:49.851Z,82.20
2018-02-10T11:25:49.778Z,75.50
2018-02-10T11:26:49.857Z,84.40
2018-02-10T11:27:49.729Z,79.60
2018-02-10T11:28:49.713Z,83.10
2018-02-10T11:29:49.688Z,90.20
2018-02-10T11:30:49.685Z,79.10
2018-02-10T11:31:49.638Z,88.80
2018-02-10T11:32:49.642Z,85.90
2018-02-10T11:33:49.598Z,89.90
2018-02-10T11:34:49.629Z,89.40
2018-02-10T11:35:49.558Z,92.50
2018-02-10T11:36:49.546Z,85.30
2018-02-10T11:37:49.510Z,92.50
2018-02-10T11:38:49.487Z,93.10
2018-02-10T11:39:49.459Z,91.00
2018-02-10T11:40:49.438Z,86.40
2018-02-10T11:41:49.429Z,83.60
2018-02-10T11:42:49.452Z,94.10
2018-02-10T11:43:49.369Z,95.80
2018-02-10T11:44:49.346Z,98.30
2018-02-10T11:45:49.326Z,90.30
2018-02-10T11:46:49.300Z,91.80
2018-02-10T11:47:49.280Z,89.80
2018-02-10T11:48:49.255Z,85.80
2018-02-10T11:49:49.233Z,93.50
2018-02-10T11:50:49.215Z,93.70
2018-02-10T11:51:49.191Z,86.50
2018-02-10T11:52:49.170Z,84.50
2018-02-10T11:53:49.169Z,88.10
2018-02-10T11:54:49.126Z,84.00
2018-02-10T11:55:49.096Z,89.20
2018-02-10T11:56:49.089Z,84.80
2018-02-10T11:57:49.054Z,83.20
2018-02-10T11:58:49.032Z,85.80
2018-02-10T11:59:49.026Z,81.80
2018-02-10T12:00:48.991Z,90.30
2018-02-10T12:01:48.970Z,88.10
2018-02-10T12:02:48.948Z,84.80
2018-02-10T12:03:48.919Z,95.00
2018-02-10T12:04:48.898Z,85.50
2018-02-10T12:05:48.876Z,94.80
2018-02-10T12:06:48.860Z,89.20
2018-02-10T12:07:48.834Z,91.30
2018-02-10T12:08:48.810Z,96.40
2018-02-10T12:09:48.788Z,95.90
2018-02-10T12:10:48.775Z,91.90
2018-02-10T12:11:48.743Z,91.10
2018-02-10T12:12:48.727Z,98.10
2018-02-10T12:13:48.697Z,95.30
2018-02-10T12:14:48.679Z,100.30
2018-02-10T12:15:48.657Z,92.50
2018-02-10T12:16:48.632Z,93.10
2018-02-10T12:17:48.616Z,96.20
2018-02-10T12:18:48.592Z,94.10
2018-02-10T12:19:48.570Z,91.40
2018-02-10T12:20:48.553Z,90.10
2018-02-10T12:21:48.529Z,91.30
2018-02-10T12:22:48.505Z,91.70
2018-02-10T12:23:48.478Z,88.70
2018-02-10T12:24:48.455Z,92.40
2018-02-10T12:25:48.452Z,95.60
2018-02-10T12:26:48.418Z,91.70
2018-02-10T12:27:48.390Z,98.50
2018-02-10T12:28:48.370Z,96.60
2018-02-10T12:29:48.347Z,100.70
2018-02-10T12:30:48.326Z,98.50
2018-02-10T12:31:48.302Z,93.80
2018-02-10T12:32:48.281Z,96.00
2018-02-10T12:33:48.268Z,93.00
2018-02-10T12:34:48.241Z,94.90
2018-02-10T12:35:48.217Z,94.50
2018-02-10T12:36:48.197Z,93.60
2018-02-10T12:37:48.169Z,103.20
2018-02-10T12:38:48.150Z,103.40
2018-02-10T12:39:48.132Z,98.70
2018-02-10T12:40:48.108Z,93.70
2018-02-10T12:41:48.082Z,91.20
2018-02-10T12:42:48.063Z,96.90
2018-02-10T12:43:48.039Z,94.10
2018-02-10T12:44:48.017Z,96.00
2018-02-10T12:45:48.004Z,101.30
2018-02-10T12:46:47.974Z,99.80
2018-02-10T12:47:47.950Z,99.20
2018-02-10T12:48:47.932Z,94.30
2018-02-10T12:49:47.905Z,98.00
2018-02-10T12:50:47.882Z,96.70